Terminal Aerodrome Forecast
Issued by NWS El Paso, TX

Home | Current Version | Previous Version | Text Only | Print | Product List | Glossary On
Versions: 1 2 3 4 5 6 7 8 9 10 11 12 13 14 15 16
000
FTUS44 KEPZ 251120
TAFELP
TAF
KELP 251120Z 2512/2612 03006KT P6SM SCT100
     FM251800 07005KT P6SM SCT070 BKN120
     FM260300 12009KT P6SM SCT100 BKN250=

USA.gov is the U.S. government's official web portal to all federal, state and local government web resources and services.